Time;durP1;ratioP1;P1;durP2;ratioP2;P2;SDS_P1;SDS_P2;PMS_P1;PMS_P2;Temp;Humidity;BMP_temperature;BMP_pressure;BME280_temperature;BME280_humidity;BME280_pressure;Samples;Min_cycle;Max_cycle;Signal;HPM_P1;HPM_P2
2022/02/06 00:01:45;;;;;;;2.70;2.08;;;;;;;;;;6243140;28;20481;-84
2022/02/06 00:04:47;;;;;;;4.47;2.15;;;;;;;;;;6231694;28;20499;-83
2022/02/06 00:07:49;;;;;;;7.43;2.47;;;;;;;;;;6198810;28;20091;-83
2022/02/06 00:10:51;;;;;;;7.47;2.20;;;;;;;;;;6239722;28;20255;-82
2022/02/06 00:13:53;;;;;;;5.78;2.50;;;;;;;;;;6216017;28;20046;-82
2022/02/06 00:16:54;;;;;;;9.55;2.30;;;;;;;;;;6216917;28;20057;-82
2022/02/06 00:19:56;;;;;;;4.68;2.17;;;;;;;;;;6242429;28;20045;-83
2022/02/06 00:23:02;;;;;;;6.00;2.20;;;;;;;;;;6241912;28;20052;-83
2022/02/06 00:26:15;;;;;;;6.07;2.88;;;;;;;;;;6234218;28;20065;-84
2022/02/06 00:29:24;;;;;;;7.05;2.30;;;;;;;;;;6220007;28;20037;-82
2022/02/06 00:32:43;;;;;;;2.70;1.80;;;;;;;;;;6239520;28;20046;-84
2022/02/06 00:39:05;;;;;;;3.78;1.90;;;;;;;;;;6235361;28;20120;-83
2022/02/06 00:42:07;;;;;;;7.72;2.10;;;;;;;;;;6204632;28;20069;-83
2022/02/06 00:45:08;;;;;;;4.40;1.80;;;;;;;;;;6238138;28;20133;-83
2022/02/06 00:48:10;;;;;;;6.13;2.17;;;;;;;;;;6252493;28;20488;-83
2022/02/06 00:51:27;;;;;;;6.60;1.80;;;;;;;;;;6244893;28;20049;-82
2022/02/06 00:54:29;;;;;;;3.28;1.65;;;;;;;;;;6242047;28;20105;-82
2022/02/06 00:57:31;;;;;;;3.47;1.80;;;;;;;;;;6219474;28;20392;-81
2022/02/06 01:00:32;;;;;;;4.18;1.80;;;;;;;;;;6239489;28;20041;-83
2022/02/06 01:03:36;;;;;;;6.43;2.63;;;;;;;;;;6247445;28;20049;-82
2022/02/06 01:06:38;;;;;;;5.13;2.22;;;;;;;;;;6248719;28;20056;-83
2022/02/06 01:09:40;;;;;;;5.20;1.85;;;;;;;;;;6248126;28;20136;-82
2022/02/06 01:12:46;;;;;;;4.90;2.00;;;;;;;;;;6218293;28;20116;-83
2022/02/06 01:16:03;;;;;;;5.93;1.80;;;;;;;;;;6223762;28;20091;-82
2022/02/06 01:19:13;;;;;;;6.07;1.98;;;;;;;;;;6243507;28;20048;-83
2022/02/06 01:22:19;;;;;;;9.77;2.13;;;;;;;;;;6242799;28;20049;-82
2022/02/06 01:25:28;;;;;;;5.32;2.13;;;;;;;;;;6224556;28;20050;-83
2022/02/06 01:28:44;;;;;;;5.75;2.00;;;;;;;;;;6217381;28;20227;-82
2022/02/06 01:35:07;;;;;;;2.70;2.10;;;;;;;;;;6242935;28;20502;-84
2022/02/06 01:41:19;;;;;;;6.35;2.00;;;;;;;;;;6226311;28;20042;-82
2022/02/06 01:44:34;;;;;;;1.80;1.52;;;;;;;;;;6228059;28;20306;-83
2022/02/06 02:04:09;;;;;;;3.15;1.70;;;;;;;;;;6220364;28;20038;-82
2022/02/06 02:07:33;;;;;;;5.57;1.70;;;;;;;;;;6218251;28;20045;-82
2022/02/06 02:11:08;;;;;;;5.00;1.33;;;;;;;;;;6229143;28;20126;-83
2022/02/06 02:14:39;;;;;;;6.65;1.75;;;;;;;;;;6242589;28;20520;-82
2022/02/06 02:47:51;;;;;;;3.20;1.58;;;;;;;;;;6224134;28;20052;-82
2022/02/06 02:50:58;;;;;;;4.75;1.90;;;;;;;;;;6195574;28;20403;-82
2022/02/06 02:54:10;;;;;;;6.63;1.90;;;;;;;;;;6201901;28;20054;-83
2022/02/06 02:57:25;;;;;;;5.28;2.00;;;;;;;;;;6246330;28;20041;-84
2022/02/06 03:00:36;;;;;;;5.40;1.90;;;;;;;;;;6242261;28;20113;-83
2022/02/06 03:03:40;;;;;;;5.32;1.83;;;;;;;;;;6277020;28;20040;-83
2022/02/06 03:06:42;;;;;;;6.13;1.80;;;;;;;;;;6260262;28;20061;-83
2022/02/06 03:09:45;;;;;;;4.78;1.65;;;;;;;;;;6227263;28;20211;-83
2022/02/06 03:12:50;;;;;;;2.40;1.65;;;;;;;;;;6238500;28;20469;-83
2022/02/06 03:19:11;;;;;;;3.17;1.90;;;;;;;;;;6225613;28;20046;-84
2022/02/06 03:22:20;;;;;;;6.57;1.60;;;;;;;;;;6241509;28;20499;-79
2022/02/06 03:25:24;;;;;;;3.60;1.33;;;;;;;;;;6240967;28;20125;-79
2022/02/06 03:28:25;;;;;;;4.13;2.00;;;;;;;;;;6227678;28;20092;-82
2022/02/06 03:31:27;;;;;;;3.53;1.55;;;;;;;;;;6227321;28;20037;-81
2022/02/06 03:34:28;;;;;;;7.07;2.00;;;;;;;;;;6251420;28;20163;-83
2022/02/06 03:37:30;;;;;;;3.28;1.58;;;;;;;;;;6251228;28;20045;-84
2022/02/06 03:40:39;;;;;;;5.65;1.70;;;;;;;;;;6235026;28;20042;-81
2022/02/06 03:43:52;;;;;;;4.63;1.60;;;;;;;;;;6239917;28;20046;-83
2022/02/06 03:47:03;;;;;;;3.92;1.70;;;;;;;;;;6242329;28;20050;-80
2022/02/06 03:50:05;;;;;;;5.85;1.73;;;;;;;;;;6255032;28;20046;-81
2022/02/06 03:53:07;;;;;;;4.93;1.50;;;;;;;;;;6247041;28;20531;-81
2022/02/06 03:56:09;;;;;;;5.30;1.65;;;;;;;;;;6237578;28;20050;-83
2022/02/06 03:59:11;;;;;;;3.75;1.70;;;;;;;;;;6214132;28;20047;-83
2022/02/06 04:02:12;;;;;;;6.68;1.90;;;;;;;;;;6245742;28;20133;-81
2022/02/06 04:05:14;;;;;;;3.83;1.77;;;;;;;;;;6220340;28;20054;-80
2022/02/06 04:08:18;;;;;;;3.85;2.42;;;;;;;;;;6252039;28;20059;-80
2022/02/06 04:11:31;;;;;;;4.85;1.40;;;;;;;;;;6235173;28;20678;-83
2022/02/06 04:14:42;;;;;;;6.45;1.60;;;;;;;;;;6230072;28;20050;-83
2022/02/06 04:17:48;;;;;;;2.22;1.20;;;;;;;;;;6246086;28;20401;-83
2022/02/06 04:20:50;;;;;;;2.97;1.50;;;;;;;;;;6230419;28;20107;-83
2022/02/06 04:23:51;;;;;;;5.20;1.58;;;;;;;;;;6248299;28;20050;-82
2022/02/06 04:26:53;;;;;;;6.55;1.50;;;;;;;;;;6222905;28;20052;-82
2022/02/06 04:29:55;;;;;;;5.88;1.73;;;;;;;;;;6239628;28;20045;-80
2022/02/06 04:32:57;;;;;;;4.00;1.70;;;;;;;;;;6224860;28;20065;-80
2022/02/06 04:36:00;;;;;;;5.80;1.63;;;;;;;;;;6239643;28;20038;-84
2022/02/06 04:46:28;;;;;;;7.93;1.90;;;;;;;;;;6230022;28;20084;-83
2022/02/06 05:13:02;;;;;;;5.30;1.42;;;;;;;;;;6245953;28;20633;-83
2022/02/06 05:23:03;;;;;;;2.47;1.33;;;;;;;;;;6243452;28;20051;-82
2022/02/06 05:35:13;;;;;;;2.20;1.25;;;;;;;;;;6221431;28;20046;-80
2022/02/06 05:38:15;;;;;;;2.33;1.58;;;;;;;;;;6211830;28;20042;-81
2022/02/06 05:41:17;;;;;;;3.38;1.40;;;;;;;;;;6225751;28;20117;-83
2022/02/06 05:44:18;;;;;;;6.00;1.20;;;;;;;;;;6244382;28;20041;-80
2022/02/06 05:47:22;;;;;;;2.55;1.27;;;;;;;;;;6240879;28;20045;-81
2022/02/06 05:50:24;;;;;;;4.60;1.42;;;;;;;;;;6244402;28;20318;-83
2022/02/06 05:53:25;;;;;;;2.95;0.95;;;;;;;;;;6238028;28;20049;-81
2022/02/06 05:56:27;;;;;;;3.40;1.90;;;;;;;;;;6211913;28;20049;-82
2022/02/06 05:59:29;;;;;;;2.55;1.35;;;;;;;;;;6226113;28;20045;-80
2022/02/06 06:02:30;;;;;;;5.10;1.13;;;;;;;;;;6230378;28;20507;-80
2022/02/06 06:05:33;;;;;;;2.30;1.40;;;;;;;;;;6231383;28;20045;-82
2022/02/06 06:08:34;;;;;;;4.57;1.45;;;;;;;;;;6210128;28;20050;-83
2022/02/06 06:11:36;;;;;;;2.65;1.40;;;;;;;;;;6232132;28;20033;-83
2022/02/06 06:14:39;;;;;;;2.92;1.77;;;;;;;;;;6213479;28;20057;-80
2022/02/06 06:17:41;;;;;;;2.63;1.60;;;;;;;;;;6217124;28;20038;-82
2022/02/06 06:20:45;;;;;;;2.03;1.20;;;;;;;;;;6255855;28;20069;-81
2022/02/06 06:23:46;;;;;;;1.92;1.50;;;;;;;;;;6242291;28;20047;-83
2022/02/06 06:26:48;;;;;;;2.75;1.00;;;;;;;;;;6244100;28;20065;-82
2022/02/06 06:29:50;;;;;;;2.42;1.27;;;;;;;;;;6242229;28;20049;-81
2022/02/06 06:32:52;;;;;;;5.40;1.40;;;;;;;;;;6224684;28;20154;-82
2022/02/06 06:36:13;;;;;;;3.20;1.10;;;;;;;;;;6230904;28;20101;-80
2022/02/06 06:39:23;;;;;;;1.58;0.93;;;;;;;;;;6232648;28;20050;-82
2022/02/06 06:42:33;;;;;;;1.95;1.17;;;;;;;;;;6216640;28;20045;-82
2022/02/06 06:45:35;;;;;;;3.55;1.38;;;;;;;;;;6234146;28;20053;-80
2022/02/06 06:48:36;;;;;;;3.35;1.60;;;;;;;;;;6242519;28;20041;-82
2022/02/06 06:51:38;;;;;;;3.92;1.13;;;;;;;;;;6243013;28;20378;-83
2022/02/06 06:54:44;;;;;;;2.53;1.25;;;;;;;;;;6239830;28;20780;-81
2022/02/06 06:57:55;;;;;;;5.90;1.38;;;;;;;;;;6232506;28;20125;-79
2022/02/06 07:04:01;;;;;;;1.85;0.85;;;;;;;;;;6246974;28;20263;-83
2022/02/06 07:07:24;;;;;;;1.42;0.80;;;;;;;;;;6245912;28;20053;-82
2022/02/06 07:10:26;;;;;;;2.22;0.90;;;;;;;;;;6233346;28;20041;-80
2022/02/06 07:13:28;;;;;;;1.45;1.00;;;;;;;;;;6217513;28;20181;-82
2022/02/06 07:16:29;;;;;;;3.15;0.90;;;;;;;;;;6225823;28;20071;-79
2022/02/06 07:19:31;;;;;;;2.38;1.23;;;;;;;;;;6240271;28;20655;-79
2022/02/06 07:22:36;;;;;;;1.92;1.10;;;;;;;;;;6241109;28;20124;-80
2022/02/06 07:25:39;;;;;;;2.58;0.95;;;;;;;;;;6224170;28;20046;-77
2022/02/06 07:28:47;;;;;;;1.70;0.85;;;;;;;;;;6227044;28;20042;-79
2022/02/06 07:31:50;;;;;;;1.95;1.10;;;;;;;;;;6223942;28;20132;-81
2022/02/06 07:34:52;;;;;;;3.25;1.08;;;;;;;;;;6220091;28;20056;-79
2022/02/06 07:37:57;;;;;;;3.67;1.10;;;;;;;;;;6202875;28;20474;-80
2022/02/06 07:40:58;;;;;;;4.22;1.00;;;;;;;;;;6226759;28;20041;-80
2022/02/06 07:44:00;;;;;;;0.85;0.75;;;;;;;;;;6245007;28;20317;-80
2022/02/06 07:47:13;;;;;;;2.15;1.20;;;;;;;;;;6241822;28;20047;-80
2022/02/06 07:50:16;;;;;;;3.03;0.80;;;;;;;;;;6246613;28;20047;-79
2022/02/06 07:53:18;;;;;;;3.08;1.08;;;;;;;;;;6249451;28;20499;-78
2022/02/06 07:56:20;;;;;;;1.42;1.10;;;;;;;;;;6256677;28;20049;-80
2022/02/06 07:59:21;;;;;;;2.15;0.85;;;;;;;;;;6252113;28;20113;-79
2022/02/06 08:02:23;;;;;;;1.02;0.82;;;;;;;;;;6255109;28;20053;-81
2022/02/06 08:05:26;;;;;;;1.00;0.80;;;;;;;;;;6246851;28;20207;-81
2022/02/06 08:08:27;;;;;;;3.95;1.10;;;;;;;;;;6247675;28;20052;-78
2022/02/06 08:11:35;;;;;;;3.90;1.15;;;;;;;;;;6251283;28;20056;-78
2022/02/06 08:14:54;;;;;;;4.05;1.10;;;;;;;;;;6221526;28;20053;-79
2022/02/06 08:17:56;;;;;;;2.05;1.20;;;;;;;;;;6239250;28;20212;-79
2022/02/06 08:21:14;;;;;;;3.05;0.98;;;;;;;;;;6234465;28;20057;-80
2022/02/06 08:24:19;;;;;;;1.88;1.00;;;;;;;;;;6236735;28;20052;-81
2022/02/06 08:27:23;;;;;;;2.03;0.90;;;;;;;;;;6235922;28;20050;-78
2022/02/06 08:30:24;;;;;;;2.10;0.65;;;;;;;;;;6256255;28;21063;-80
2022/02/06 08:33:26;;;;;;;2.25;0.90;;;;;;;;;;6233244;28;20555;-81
2022/02/06 08:36:28;;;;;;;2.75;1.08;;;;;;;;;;6240063;28;20049;-80
2022/02/06 08:39:40;;;;;;;1.73;0.73;;;;;;;;;;6233375;28;20057;-81
2022/02/06 08:42:46;;;;;;;2.63;0.90;;;;;;;;;;6243189;28;20041;-78
2022/02/06 08:45:48;;;;;;;1.40;0.65;;;;;;;;;;6241641;28;20042;-79
2022/02/06 08:48:50;;;;;;;2.08;0.90;;;;;;;;;;6247809;28;20041;-81
2022/02/06 08:51:52;;;;;;;2.53;1.00;;;;;;;;;;6250337;28;20307;-80
2022/02/06 08:54:54;;;;;;;1.00;0.87;;;;;;;;;;6241138;28;20279;-82
2022/02/06 08:57:57;;;;;;;1.63;0.70;;;;;;;;;;6243075;28;20046;-80
2022/02/06 09:00:59;;;;;;;0.88;0.60;;;;;;;;;;6242456;28;20053;-80
2022/02/06 09:04:01;;;;;;;0.52;0.50;;;;;;;;;;6230571;28;20056;-80
2022/02/06 09:07:04;;;;;;;1.25;0.70;;;;;;;;;;6250763;28;20049;-80
2022/02/06 09:10:10;;;;;;;2.75;1.00;;;;;;;;;;6225253;28;20066;-80
2022/02/06 09:13:11;;;;;;;;;;;;;;;;;;6271135;28;20064;-80
2022/02/06 09:16:13;;;;;;;5.38;2.00;;;;;;;;;;6273267;28;19995;-81
2022/02/06 09:19:14;;;;;;;1.05;0.70;;;;;;;;;;6236733;28;20046;-81
2022/02/06 09:22:16;;;;;;;1.92;1.00;;;;;;;;;;6222905;28;20050;-80
2022/02/06 09:25:18;;;;;;;2.50;1.00;;;;;;;;;;6221944;28;20077;-78
2022/02/06 09:28:20;;;;;;;2.45;1.20;;;;;;;;;;6245793;28;20061;-82
2022/02/06 09:31:25;;;;;;;0.82;0.82;;;;;;;;;;6241957;28;20070;-80
2022/02/06 09:37:30;;;;;;;3.05;1.20;;;;;;;;;;6220402;28;20054;-80
2022/02/06 09:40:37;;;;;;;1.92;0.65;;;;;;;;;;6245099;28;20661;-78
2022/02/06 09:43:39;;;;;;;0.90;0.60;;;;;;;;;;6220901;28;20050;-81
2022/02/06 09:46:45;;;;;;;1.33;0.70;;;;;;;;;;6242707;28;20043;-80
2022/02/06 09:49:49;;;;;;;1.98;1.05;;;;;;;;;;6242702;28;20049;-82
2022/02/06 09:52:54;;;;;;;0.52;0.52;;;;;;;;;;6241327;28;20533;-82
2022/02/06 09:56:06;;;;;;;0.90;0.60;;;;;;;;;;6231047;28;20371;-82
2022/02/06 09:59:18;;;;;;;1.33;0.57;;;;;;;;;;6231949;28;20129;-82
2022/02/06 10:02:24;;;;;;;0.82;0.60;;;;;;;;;;6220525;28;20136;-81
2022/02/06 10:05:28;;;;;;;0.35;0.30;;;;;;;;;;6206538;28;20106;-82
2022/02/06 10:08:38;;;;;;;2.10;0.55;;;;;;;;;;6242728;28;20124;-81
2022/02/06 10:11:45;;;;;;;0.75;0.45;;;;;;;;;;6234787;28;20038;-83
2022/02/06 10:14:48;;;;;;;1.08;0.55;;;;;;;;;;6237878;28;20046;-83
2022/02/06 10:17:50;;;;;;;0.40;0.40;;;;;;;;;;6231439;28;20042;-82
2022/02/06 10:20:53;;;;;;;0.93;0.77;;;;;;;;;;6230204;28;20050;-80
2022/02/06 10:24:15;;;;;;;0.90;0.52;;;;;;;;;;6237191;28;20187;-82
2022/02/06 10:27:21;;;;;;;1.60;0.60;;;;;;;;;;6243853;28;20055;-83
2022/02/06 10:30:37;;;;;;;0.55;0.38;;;;;;;;;;6264888;28;20124;-81
2022/02/06 10:33:48;;;;;;;1.42;0.70;;;;;;;;;;6232799;28;20046;-83
2022/02/06 10:37:08;;;;;;;0.40;0.30;;;;;;;;;;6217741;28;20125;-83
2022/02/06 10:40:09;;;;;;;0.80;0.60;;;;;;;;;;6198837;28;20044;-82
2022/02/06 10:43:12;;;;;;;0.65;0.40;;;;;;;;;;6220865;28;20128;-82
2022/02/06 10:46:14;;;;;;;0.85;0.43;;;;;;;;;;6223879;28;20097;-80
2022/02/06 10:49:17;;;;;;;1.10;0.40;;;;;;;;;;6240688;28;20049;-80
2022/02/06 10:52:26;;;;;;;2.53;0.30;;;;;;;;;;6273861;28;20051;-83
2022/02/06 10:55:28;;;;;;;0.95;0.50;;;;;;;;;;6262623;28;20053;-81
2022/02/06 10:58:34;;;;;;;0.40;0.40;;;;;;;;;;6244432;28;20064;-81
2022/02/06 11:01:38;;;;;;;0.28;0.28;;;;;;;;;;6238021;28;20581;-82
2022/02/06 11:04:56;;;;;;;5.40;2.47;;;;;;;;;;6240519;28;20054;-81
2022/02/06 11:08:00;;;;;;;0.25;0.25;;;;;;;;;;6237229;28;20055;-81
2022/02/06 11:11:08;;;;;;;1.63;0.47;;;;;;;;;;6227414;28;20133;-80
2022/02/06 11:14:13;;;;;;;2.03;0.38;;;;;;;;;;6218624;28;20052;-81
2022/02/06 11:17:23;;;;;;;0.90;0.50;;;;;;;;;;6223201;28;20033;-81
2022/02/06 11:20:25;;;;;;;1.13;0.32;;;;;;;;;;6216937;28;20045;-83
2022/02/06 11:23:38;;;;;;;1.15;0.32;;;;;;;;;;6193235;28;20077;-81
2022/02/06 11:26:40;;;;;;;0.50;0.30;;;;;;;;;;6233737;28;20381;-82
2022/02/06 11:29:42;;;;;;;0.45;0.45;;;;;;;;;;6229915;28;20037;-81
2022/02/06 11:32:44;;;;;;;0.40;0.30;;;;;;;;;;6226337;28;20056;-81
2022/02/06 11:35:55;;;;;;;0.20;0.20;;;;;;;;;;6221452;28;20048;-81
2022/02/06 11:46:39;;;;;;;1.08;0.47;;;;;;;;;;6237292;28;20499;-81
2022/02/06 11:49:46;;;;;;;1.83;1.10;;;;;;;;;;6249451;28;20060;-82
2022/02/06 11:52:57;;;;;;;0.30;0.20;;;;;;;;;;6243676;28;20045;-81
2022/02/06 11:56:00;;;;;;;0.47;0.30;;;;;;;;;;6218381;28;20063;-79
2022/02/06 11:59:13;;;;;;;0.75;0.43;;;;;;;;;;6217436;28;20050;-80
2022/02/06 12:02:28;;;;;;;0.85;0.40;;;;;;;;;;6217649;28;20483;-82
2022/02/06 12:05:30;;;;;;;0.40;0.30;;;;;;;;;;6232510;28;20447;-81
2022/02/06 12:08:32;;;;;;;0.50;0.30;;;;;;;;;;6242907;28;20053;-81
2022/02/06 12:11:36;;;;;;;0.73;0.40;;;;;;;;;;6262115;28;20073;-78
2022/02/06 12:14:44;;;;;;;0.88;0.40;;;;;;;;;;6246037;28;20045;-81
2022/02/06 12:18:09;;;;;;;0.30;0.30;;;;;;;;;;6221926;28;20653;-82
2022/02/06 12:21:15;;;;;;;1.42;0.60;;;;;;;;;;6211949;28;20053;-82
2022/02/06 12:24:37;;;;;;;0.32;0.30;;;;;;;;;;6219898;28;20135;-82
2022/02/06 12:27:39;;;;;;;0.73;0.38;;;;;;;;;;6220202;28;20196;-80
2022/02/06 12:30:41;;;;;;;0.43;0.30;;;;;;;;;;6234702;28;20125;-83
2022/02/06 12:33:51;;;;;;;0.50;0.30;;;;;;;;;;6220079;28;20303;-81
2022/02/06 12:37:08;;;;;;;0.45;0.43;;;;;;;;;;6220472;28;20050;-79
2022/02/06 12:40:19;;;;;;;0.30;0.30;;;;;;;;;;6232385;28;20053;-82
2022/02/06 12:43:27;;;;;;;0.30;0.30;;;;;;;;;;6232217;28;20042;-81
2022/02/06 12:46:29;;;;;;;0.57;0.40;;;;;;;;;;6233243;28;20133;-79
2022/02/06 12:49:35;;;;;;;0.70;0.20;;;;;;;;;;6238867;28;20040;-80
2022/02/06 12:52:38;;;;;;;0.47;0.20;;;;;;;;;;6217403;28;20667;-81
2022/02/06 12:55:40;;;;;;;0.60;0.40;;;;;;;;;;6216220;28;20046;-79
2022/02/06 12:58:47;;;;;;;0.30;0.30;;;;;;;;;;6218605;28;20070;-80
2022/02/06 13:01:50;;;;;;;0.20;0.20;;;;;;;;;;6215937;28;20114;-80
2022/02/06 13:04:59;;;;;;;0.27;0.20;;;;;;;;;;6216665;28;20125;-79
2022/02/06 13:08:02;;;;;;;0.35;0.20;;;;;;;;;;6219228;28;20153;-81
2022/02/06 13:11:16;;;;;;;0.20;0.20;;;;;;;;;;6208855;28;20068;-80
2022/02/06 13:18:13;;;;;;;0.20;0.20;;;;;;;;;;6221233;28;20105;-82
2022/02/06 13:34:29;;;;;;;0.22;0.20;;;;;;;;;;6240122;28;20049;-80
2022/02/06 13:37:42;;;;;;;0.17;0.10;;;;;;;;;;6241656;28;20563;-81
2022/02/06 13:40:50;;;;;;;0.30;0.20;;;;;;;;;;6241381;28;20491;-82
2022/02/06 13:43:55;;;;;;;0.30;0.20;;;;;;;;;;6257665;28;20049;-81
2022/02/06 13:46:59;;;;;;;0.20;0.20;;;;;;;;;;6240121;28;20084;-82
2022/02/06 13:50:03;;;;;;;0.77;0.13;;;;;;;;;;6240594;28;20517;-82
2022/02/06 13:53:07;;;;;;;0.15;0.15;;;;;;;;;;6241797;28;20045;-83
2022/02/06 13:56:13;;;;;;;0.90;0.10;;;;;;;;;;6218166;28;20044;-81
2022/02/06 13:59:19;;;;;;;0.20;0.13;;;;;;;;;;6209430;28;20527;-80
2022/02/06 14:02:21;;;;;;;0.10;0.10;;;;;;;;;;6218698;28;20108;-82
2022/02/06 14:05:25;;;;;;;0.20;0.10;;;;;;;;;;6235299;28;20054;-80
2022/02/06 14:08:30;;;;;;;0.10;0.10;;;;;;;;;;6241119;28;20044;-80
2022/02/06 14:11:32;;;;;;;0.65;0.20;;;;;;;;;;6247946;28;20109;-79
2022/02/06 14:14:35;;;;;;;0.17;0.17;;;;;;;;;;6254857;28;20045;-79
2022/02/06 14:18:06;;;;;;;0.20;0.20;;;;;;;;;;6221106;28;20052;-80
2022/02/06 14:21:07;;;;;;;0.32;0.20;;;;;;;;;;6230860;28;20041;-80
2022/02/06 14:24:09;;;;;;;0.22;0.20;;;;;;;;;;6232959;28;20038;-82
2022/02/06 14:27:11;;;;;;;1.08;0.20;;;;;;;;;;6229273;28;20045;-81
2022/02/06 14:30:15;;;;;;;0.20;0.10;;;;;;;;;;6233844;28;20045;-82
2022/02/06 14:33:17;;;;;;;0.85;0.20;;;;;;;;;;6230720;28;20832;-82
2022/02/06 14:36:24;;;;;;;0.20;0.20;;;;;;;;;;6251909;28;20139;-80
2022/02/06 14:39:32;;;;;;;0.20;0.20;;;;;;;;;;6231086;28;20060;-83
2022/02/06 14:42:36;;;;;;;0.30;0.10;;;;;;;;;;6233606;28;20053;-84
2022/02/06 14:45:52;;;;;;;0.30;0.20;;;;;;;;;;6237450;28;20049;-82
2022/02/06 14:48:56;;;;;;;0.40;0.20;;;;;;;;;;6223638;28;20053;-83
2022/02/06 14:52:02;;;;;;;0.20;0.20;;;;;;;;;;6217054;28;20718;-83
2022/02/06 14:55:04;;;;;;;0.95;0.20;;;;;;;;;;6222718;28;20083;-82
2022/02/06 14:58:06;;;;;;;0.20;0.20;;;;;;;;;;6248015;28;20056;-83
2022/02/06 15:01:08;;;;;;;0.40;0.20;;;;;;;;;;6213184;28;20053;-80
2022/02/06 15:04:10;;;;;;;3.42;0.30;;;;;;;;;;6242227;28;20084;-82
2022/02/06 15:07:12;;;;;;;0.13;0.13;;;;;;;;;;6236402;28;20065;-80
2022/02/06 15:10:13;;;;;;;0.10;0.10;;;;;;;;;;6233349;28;20059;-83
2022/02/06 15:13:15;;;;;;;0.10;0.10;;;;;;;;;;6244834;28;20142;-82
2022/02/06 15:16:21;;;;;;;1.85;0.30;;;;;;;;;;6219720;28;20088;-81
2022/02/06 15:19:31;;;;;;;0.10;0.10;;;;;;;;;;6221782;28;20283;-82
2022/02/06 15:22:33;;;;;;;0.20;0.10;;;;;;;;;;6244147;28;20055;-80
2022/02/06 15:25:34;;;;;;;0.70;0.30;;;;;;;;;;6230491;28;20102;-83
2022/02/06 15:28:36;;;;;;;0.20;0.10;;;;;;;;;;6215641;28;20046;-83
2022/02/06 15:31:39;;;;;;;0.52;0.20;;;;;;;;;;6216686;28;20151;-83
2022/02/06 15:34:50;;;;;;;0.32;0.30;;;;;;;;;;6215844;28;20046;-80
2022/02/06 15:37:53;;;;;;;0.20;0.20;;;;;;;;;;6237002;28;20054;-83
2022/02/06 15:40:58;;;;;;;1.08;0.30;;;;;;;;;;6239717;28;20052;-81
2022/02/06 15:44:00;;;;;;;0.35;0.20;;;;;;;;;;6214472;28;20132;-79
2022/02/06 15:47:02;;;;;;;0.22;0.20;;;;;;;;;;6249364;28;20093;-82
2022/02/06 15:50:06;;;;;;;0.15;0.15;;;;;;;;;;6240347;28;20088;-80
2022/02/06 15:53:08;;;;;;;0.20;0.20;;;;;;;;;;6190087;28;20057;-83
2022/02/06 15:56:09;;;;;;;0.52;0.30;;;;;;;;;;6185682;28;20050;-83
2022/02/06 15:59:11;;;;;;;0.20;0.20;;;;;;;;;;6251267;28;20626;-82
2022/02/06 16:02:12;;;;;;;0.70;0.68;;;;;;;;;;6223363;28;20071;-83
2022/02/06 16:05:14;;;;;;;0.40;0.38;;;;;;;;;;6214384;28;20046;-82
2022/02/06 16:08:21;;;;;;;0.40;0.40;;;;;;;;;;6237523;28;20103;-82
2022/02/06 16:11:27;;;;;;;0.30;0.20;;;;;;;;;;6227164;28;20072;-83
2022/02/06 16:14:29;;;;;;;0.30;0.30;;;;;;;;;;6253902;28;20574;-83
2022/02/06 16:17:31;;;;;;;0.50;0.50;;;;;;;;;;6236930;28;20057;-83
2022/02/06 16:20:32;;;;;;;0.30;0.30;;;;;;;;;;6236414;28;20502;-79
2022/02/06 16:23:34;;;;;;;1.10;0.20;;;;;;;;;;6239132;28;20041;-81
2022/02/06 16:26:36;;;;;;;0.60;0.40;;;;;;;;;;6220464;28;20042;-80
2022/02/06 16:29:41;;;;;;;0.45;0.45;;;;;;;;;;6216302;28;20101;-79
2022/02/06 16:32:43;;;;;;;0.65;0.60;;;;;;;;;;6243448;28;20100;-81
2022/02/06 16:35:45;;;;;;;0.35;0.30;;;;;;;;;;6238656;28;20263;-80
2022/02/06 16:39:02;;;;;;;0.65;0.40;;;;;;;;;;6217840;28;20113;-79
2022/02/06 16:42:04;;;;;;;0.43;0.32;;;;;;;;;;6213621;28;20050;-79
2022/02/06 16:45:06;;;;;;;1.48;0.60;;;;;;;;;;6237229;28;20042;-79
2022/02/06 16:48:08;;;;;;;0.85;0.55;;;;;;;;;;6216061;28;20052;-81
2022/02/06 16:51:09;;;;;;;0.40;0.40;;;;;;;;;;6239561;28;20530;-80
2022/02/06 16:54:11;;;;;;;0.75;0.50;;;;;;;;;;6234823;28;20137;-79
2022/02/06 16:57:14;;;;;;;2.65;1.58;;;;;;;;;;6220176;28;20053;-82
2022/02/06 17:00:16;;;;;;;1.05;0.63;;;;;;;;;;6217866;28;20057;-82
2022/02/06 17:03:18;;;;;;;8.23;3.33;;;;;;;;;;6228374;28;20067;-81
2022/02/06 17:06:21;;;;;;;2.28;1.42;;;;;;;;;;6229248;28;20502;-82
2022/02/06 17:09:23;;;;;;;;;;;;;;;;;;6244481;28;20105;-78
2022/02/06 17:12:26;;;;;;;1.02;0.65;;;;;;;;;;6232257;28;19951;-81
2022/02/06 17:15:28;;;;;;;1.23;0.60;;;;;;;;;;6217914;28;20080;-80
2022/02/06 17:18:30;;;;;;;1.30;0.90;;;;;;;;;;6211129;28;20125;-82
2022/02/06 17:21:33;;;;;;;1.05;0.80;;;;;;;;;;6234080;28;20049;-80
2022/02/06 17:24:34;;;;;;;1.98;0.60;;;;;;;;;;6245342;28;20042;-81
2022/02/06 17:27:36;;;;;;;1.50;0.55;;;;;;;;;;6243185;28;20788;-83
2022/02/06 17:30:39;;;;;;;1.30;0.90;;;;;;;;;;6238537;28;20034;-78
2022/02/06 17:33:41;;;;;;;;;;;;;;;;;;6234404;28;20829;-79
2022/02/06 17:36:42;;;;;;;1.65;0.98;;;;;;;;;;6245499;28;19956;-79
2022/02/06 17:39:44;;;;;;;2.22;1.48;;;;;;;;;;6253838;28;20041;-78
2022/02/06 17:42:47;;;;;;;0.90;0.70;;;;;;;;;;6238132;28;20504;-80
2022/02/06 17:45:49;;;;;;;2.40;1.27;;;;;;;;;;6225720;28;20057;-81
2022/02/06 17:48:53;;;;;;;1.05;0.80;;;;;;;;;;6243886;28;20498;-82
2022/02/06 17:51:54;;;;;;;1.40;0.60;;;;;;;;;;6224399;28;20498;-83
2022/02/06 17:54:58;;;;;;;1.13;0.73;;;;;;;;;;6225048;28;20049;-81
2022/02/06 17:57:59;;;;;;;;;;;;;;;;;;6201973;28;20107;-79
2022/02/06 18:01:01;;;;;;;1.00;0.80;;;;;;;;;;6241646;28;19931;-81
2022/02/06 18:04:03;;;;;;;2.00;1.00;;;;;;;;;;6244581;28;20064;-82
2022/02/06 18:07:05;;;;;;;3.53;1.35;;;;;;;;;;6263528;28;20045;-80
2022/02/06 18:10:07;;;;;;;2.25;1.02;;;;;;;;;;6264862;28;20033;-83
2022/02/06 18:13:09;;;;;;;3.33;1.33;;;;;;;;;;6218836;28;20738;-79
2022/02/06 18:16:11;;;;;;;1.50;0.73;;;;;;;;;;6235742;28;20042;-82
2022/02/06 18:19:12;;;;;;;5.05;1.10;;;;;;;;;;6218187;28;20052;-82
2022/02/06 18:22:15;;;;;;;2.33;1.00;;;;;;;;;;6235937;28;20059;-80
2022/02/06 18:25:17;;;;;;;1.20;1.10;;;;;;;;;;6209025;28;20046;-81
2022/02/06 18:28:19;;;;;;;2.80;0.93;;;;;;;;;;6208146;28;20698;-82
2022/02/06 18:31:21;;;;;;;0.98;0.90;;;;;;;;;;6215616;28;20054;-83
2022/02/06 18:34:22;;;;;;;2.33;0.88;;;;;;;;;;6240931;28;20392;-80
2022/02/06 18:37:24;;;;;;;1.35;0.60;;;;;;;;;;6242129;28;20049;-82
2022/02/06 18:40:26;;;;;;;4.03;1.27;;;;;;;;;;6236201;28;20499;-80
2022/02/06 18:43:27;;;;;;;2.25;1.20;;;;;;;;;;6244092;28;20518;-81
2022/02/06 18:46:30;;;;;;;8.90;2.75;;;;;;;;;;6243934;28;20414;-80
2022/02/06 18:49:32;;;;;;;2.72;1.23;;;;;;;;;;6240568;28;20049;-83
2022/02/06 18:52:33;;;;;;;2.47;0.70;;;;;;;;;;6237780;28;20788;-79
2022/02/06 18:55:35;;;;;;;2.45;0.70;;;;;;;;;;6229647;28;20756;-83
2022/02/06 18:58:38;;;;;;;2.42;0.80;;;;;;;;;;6214530;28;20050;-79
2022/02/06 19:01:40;;;;;;;0.50;0.47;;;;;;;;;;6202729;28;20128;-81
2022/02/06 19:04:42;;;;;;;2.33;0.60;;;;;;;;;;6236383;28;20516;-80
2022/02/06 19:07:44;;;;;;;0.57;0.40;;;;;;;;;;6233965;28;20052;-80
2022/02/06 19:10:46;;;;;;;0.93;0.75;;;;;;;;;;6216302;28;20776;-80
2022/02/06 19:13:47;;;;;;;3.78;1.23;;;;;;;;;;6233230;28;20042;-79
2022/02/06 19:16:49;;;;;;;1.25;0.60;;;;;;;;;;6201893;28;20400;-80
2022/02/06 19:19:51;;;;;;;1.60;0.50;;;;;;;;;;6217439;28;20363;-81
2022/02/06 19:22:54;;;;;;;1.63;0.73;;;;;;;;;;6210922;28;20515;-79
2022/02/06 19:26:02;;;;;;;2.80;0.70;;;;;;;;;;6234317;28;20038;-81
2022/02/06 19:29:04;;;;;;;1.90;0.95;;;;;;;;;;6220088;28;20048;-78
2022/02/06 19:32:07;;;;;;;1.75;0.90;;;;;;;;;;6234887;28;20041;-78
2022/02/06 19:35:34;;;;;;;2.35;0.90;;;;;;;;;;6236731;28;20151;-81
2022/02/06 19:38:30;;;;;;;1.92;0.90;;;;;;;;;;6240956;28;20062;-82
2022/02/06 19:41:32;;;;;;;1.13;0.93;;;;;;;;;;6236298;28;20054;-81
2022/02/06 19:44:33;;;;;;;8.60;1.50;;;;;;;;;;6240120;28;20060;-83
2022/02/06 19:47:36;;;;;;;2.60;1.05;;;;;;;;;;6241102;28;20502;-79
2022/02/06 19:50:37;;;;;;;0.98;0.95;;;;;;;;;;6238264;28;20169;-81
2022/02/06 19:53:42;;;;;;;1.38;0.93;;;;;;;;;;6241039;28;20422;-79
2022/02/06 19:56:47;;;;;;;0.95;0.73;;;;;;;;;;6236235;28;20042;-83
2022/02/06 19:59:49;;;;;;;1.20;0.80;;;;;;;;;;6220453;28;20360;-80
2022/02/06 20:02:51;;;;;;;0.40;0.40;;;;;;;;;;6241571;28;20045;-82
2022/02/06 20:05:52;;;;;;;0.50;0.50;;;;;;;;;;6241130;28;20446;-82
2022/02/06 20:08:56;;;;;;;0.93;0.60;;;;;;;;;;6244714;28;20048;-81
2022/02/06 20:11:59;;;;;;;1.58;0.63;;;;;;;;;;6241883;28;20049;-80
2022/02/06 20:15:02;;;;;;;0.98;0.60;;;;;;;;;;6242428;28;20064;-82
2022/02/06 20:18:04;;;;;;;0.98;0.60;;;;;;;;;;6235237;28;20054;-80
2022/02/06 20:21:06;;;;;;;1.17;0.40;;;;;;;;;;6228126;28;20449;-82
2022/02/06 20:24:10;;;;;;;2.25;1.00;;;;;;;;;;6236962;28;20046;-82
2022/02/06 20:27:16;;;;;;;0.30;0.30;;;;;;;;;;6239667;28;20106;-79
2022/02/06 20:30:20;;;;;;;0.52;0.40;;;;;;;;;;6215846;28;20782;-78
2022/02/06 20:33:21;;;;;;;0.50;0.50;;;;;;;;;;6223382;28;20621;-78
2022/02/06 20:36:23;;;;;;;0.75;0.20;;;;;;;;;;6227696;28;20117;-81
2022/02/06 20:39:24;;;;;;;0.57;0.40;;;;;;;;;;6255492;28;21091;-78
2022/02/06 20:42:26;;;;;;;0.20;0.20;;;;;;;;;;6255723;28;20049;-78
2022/02/06 20:45:28;;;;;;;0.70;0.30;;;;;;;;;;6249025;28;20106;-78